Time;durP1;ratioP1;P1;durP2;ratioP2;P2;SDS_P1;SDS_P2;PMS_P1;PMS_P2;Temp;Humidity;BMP_temperature;BMP_pressure;BME280_temperature;BME280_humidity;BME280_pressure;Samples;Min_cycle;Max_cycle;Signal;HPM_P1;HPM_P2
2022/11/29 00:01:21;;;;;;;5.67;5.37;;;;;;;5.39;100.00;-3418.50;5098428;28;20223;-61
2022/11/29 00:03:48;;;;;;;6.40;5.90;;;;;;;5.38;100.00;-2785.41;5098654;28;20591;-60
2022/11/29 00:06:16;;;;;;;5.53;5.33;;;;;;;5.43;100.00;-3418.53;5098509;28;20227;-60
2022/11/29 00:08:44;;;;;;;5.80;5.50;;;;;;;5.40;100.00;-3101.97;5098327;28;20239;-59
2022/11/29 00:12:10;;;;;;;6.20;5.90;;;;;;;5.42;100.00;-3735.06;5098329;28;20180;-61
2022/11/29 00:14:03;;;;;;;6.67;6.37;;;;;;;5.39;100.00;-3735.03;5098320;28;20195;-59
2022/11/29 00:16:30;;;;;;;6.10;5.80;;;;;;;5.41;100.00;-3101.97;5098345;28;20191;-60
2022/11/29 00:18:57;;;;;;;6.27;5.97;;;;;;;5.27;100.00;-3418.44;5096931;28;20192;-61
2022/11/29 00:21:24;;;;;;;5.73;5.43;;;;;;;5.47;100.00;-4368.13;5098560;28;20610;-60
2022/11/29 00:23:51;;;;;;;6.03;5.60;;;;;;;5.43;100.00;-4051.56;5098158;28;20270;-59
2022/11/29 00:26:19;;;;;;;6.20;5.90;;;;;;;5.55;100.00;-4051.75;5098156;28;20180;-60
2022/11/29 00:28:46;;;;;;;5.77;5.47;;;;;;;5.50;100.00;-4051.69;5098110;28;20265;-60
2022/11/29 00:31:15;;;;;;;5.80;5.50;;;;;;;5.56;100.00;-4684.81;5098166;28;20188;-60
2022/11/29 00:33:42;;;;;;;5.40;5.10;;;;;;;5.58;100.00;-4051.81;5098416;28;20187;-61
2022/11/29 00:36:10;;;;;;;5.60;5.40;;;;;;;5.37;100.00;-3735.00;5098022;28;20210;-60
2022/11/29 00:38:37;;;;;;;5.50;5.20;;;;;;;5.45;100.00;-5317.34;5098490;28;20629;-60
2022/11/29 00:41:04;;;;;;;5.50;5.20;;;;;;;5.58;100.00;-5950.63;5098027;28;20220;-59
2022/11/29 00:43:33;;;;;;;5.20;4.90;;;;;;;5.45;100.00;-5950.06;5098079;28;20184;-59
2022/11/29 00:46:00;;;;;;;4.80;4.60;;;;;;;5.57;100.00;-6266.94;5097907;28;20188;-60
2022/11/29 00:48:27;;;;;;;4.67;4.47;;;;;;;5.59;100.00;-6583.41;5097772;28;20305;-59
2022/11/29 00:50:54;;;;;;;3.83;3.63;;;;;;;5.62;100.00;-6583.56;5098239;28;20180;-61
2022/11/29 00:53:20;;;;;;;4.97;4.77;;;;;;;5.62;100.00;-6899.91;5098032;28;20248;-60
2022/11/29 00:55:48;;;;;;;4.77;4.57;;;;;;;5.69;100.00;-6900.34;5098092;28;20191;-61
2022/11/29 00:58:15;;;;;;;4.33;4.13;;;;;;;5.67;100.00;-6900.22;5097843;28;20246;-60
2022/11/29 01:00:44;;;;;;;4.00;3.80;;;;;;;5.65;100.00;-6900.09;5094537;28;20184;-61
2022/11/29 01:03:11;;;;;;;4.10;3.90;;;;;;;5.68;100.00;-6900.28;5095075;28;20646;-59
2022/11/29 01:05:38;;;;;;;4.73;4.43;;;;;;;5.70;100.00;-6584.03;5094556;28;20278;-61
2022/11/29 01:08:05;;;;;;;4.20;4.00;;;;;;;5.65;100.00;-6900.09;5094978;28;20229;-60
2022/11/29 01:10:32;;;;;;;3.60;3.40;;;;;;;5.56;100.00;-6899.53;5094656;28;20223;-61
2022/11/29 01:12:59;;;;;;;4.17;3.97;;;;;;;5.67;100.00;-7216.50;5094421;28;20241;-61
2022/11/29 01:15:26;;;;;;;4.00;3.80;;;;;;;5.58;100.00;-6899.66;5094803;28;20245;-59
2022/11/29 01:17:55;;;;;;;4.17;3.97;;;;;;;5.57;100.00;-6899.56;5094820;28;20215;-61
2022/11/29 01:20:21;;;;;;;3.60;3.40;;;;;;;5.64;100.00;-6900.03;5094721;28;20206;-60
2022/11/29 01:22:48;;;;;;;4.20;4.00;;;;;;;5.69;100.00;-7216.66;5095132;28;20627;-60
2022/11/29 01:25:16;;;;;;;3.50;3.30;;;;;;;5.64;100.00;-6900.03;5094909;28;20219;-59
2022/11/29 01:27:43;;;;;;;3.57;3.37;;;;;;;5.61;100.00;-6899.84;5094597;28;20266;-61
2022/11/29 01:30:12;;;;;;;3.53;3.33;;;;;;;5.70;100.00;-6900.41;5094928;28;20566;-61
2022/11/29 01:32:39;;;;;;;3.67;3.57;;;;;;;5.62;100.00;-6899.88;5094504;28;20211;-61
2022/11/29 01:35:08;;;;;;;3.53;3.33;;;;;;;5.72;100.00;-6584.16;5095091;28;20202;-61
2022/11/29 01:37:35;;;;;;;3.43;3.30;;;;;;;5.73;100.00;-5951.34;5095500;28;20216;-60
2022/11/29 01:40:03;;;;;;;3.13;3.03;;;;;;;5.70;100.00;-5951.22;5094477;28;20634;-61
2022/11/29 01:42:30;;;;;;;3.80;3.60;;;;;;;5.69;100.00;-5634.72;5093998;28;20215;-60
2022/11/29 01:45:05;;;;;;;3.10;3.00;;;;;;;5.90;100.00;-5319.00;5093851;28;20228;-61
2022/11/29 01:47:33;;;;;;;3.40;3.27;;;;;;;5.80;100.00;-4685.47;5093854;28;20199;-60
2022/11/29 01:50:00;;;;;;;4.30;4.10;;;;;;;5.90;100.00;-4685.72;5093662;28;20274;-60
2022/11/29 01:52:34;;;;;;;3.43;3.33;;;;;;;5.96;100.00;-4685.88;5093719;28;20189;-60
2022/11/29 01:55:05;;;;;;;3.90;3.70;;;;;;;6.03;100.00;-4052.50;5093842;28;20253;-61
2022/11/29 01:57:35;;;;;;;3.83;3.63;;;;;;;6.00;100.00;-3102.00;5093919;28;20227;-59
2022/11/29 02:00:08;;;;;;;3.50;3.30;;;;;;;5.98;100.00;-2151.25;5093861;28;20680;-59
2022/11/29 02:02:40;;;;;;;4.20;4.00;;;;;;;6.03;100.00;-2468.16;5093828;28;20187;-59
2022/11/29 02:05:08;;;;;;;3.47;3.27;;;;;;;5.89;100.00;-2785.16;5093582;28;20245;-60
2022/11/29 02:07:37;;;;;;;4.30;4.10;;;;;;;5.93;100.00;-3102.00;5093392;28;20200;-61
2022/11/29 02:10:07;;;;;;;4.50;4.30;;;;;;;5.65;100.00;-1834.97;5093485;28;20268;-61
2022/11/29 02:12:42;;;;;;;4.07;3.87;;;;;;;6.03;100.00;-2785.09;5093618;28;20218;-59
2022/11/29 02:15:30;;;;;;;4.03;3.83;;;;;;;5.97;100.00;-3102.00;5093193;28;20223;-61
2022/11/29 02:18:05;;;;;;;4.57;4.37;;;;;;;5.96;100.00;-3418.84;5093537;28;20274;-60
2022/11/29 02:20:52;;;;;;;4.00;3.80;;;;;;;6.00;100.00;-3418.84;5093336;28;20237;-61
2022/11/29 02:23:51;;;;;;;3.87;3.67;;;;;;;6.03;100.00;-3102.00;5093503;28;20653;-60
2022/11/29 02:26:34;;;;;;;3.73;3.53;;;;;;;6.12;100.00;-3102.00;5093439;28;20642;-60
2022/11/29 02:29:31;;;;;;;4.10;3.80;;;;;;;6.05;100.00;-1834.16;5093115;28;20243;-60
2022/11/29 02:32:42;;;;;;;3.67;3.50;;;;;;;6.17;100.00;-2151.00;5093336;28;20703;-60
2022/11/29 02:35:28;;;;;;;3.63;3.43;;;;;;;6.13;100.00;-1834.00;5092983;28;20215;-60
2022/11/29 02:38:13;;;;;;;3.87;3.67;;;;;;;6.15;100.00;-2151.03;5092854;28;20184;-60
2022/11/29 02:40:59;;;;;;;3.10;3.00;;;;;;;5.92;100.00;-1517.47;5092792;28;20224;-59
2022/11/29 02:43:39;;;;;;;3.53;3.33;;;;;;;6.08;100.00;-2151.13;5093119;28;20274;-60
2022/11/29 02:46:17;;;;;;;3.17;3.07;;;;;;;5.98;100.00;-2468.22;5093044;28;20192;-60
2022/11/29 02:48:59;;;;;;;3.77;3.60;;;;;;;5.94;100.00;-3735.63;5092452;28;20314;-60
2022/11/29 02:51:36;;;;;;;3.50;3.30;;;;;;;5.94;100.00;-4369.13;5092945;28;20618;-61
2022/11/29 02:54:12;;;;;;;11.77;3.40;;;;;;;6.01;100.00;-4685.97;5092537;28;20232;-60
2022/11/29 02:56:46;;;;;;;3.97;3.43;;;;;;;5.76;100.00;-4368.72;5092819;28;20611;-59
2022/11/29 02:59:23;;;;;;;3.73;3.53;;;;;;;5.92;100.00;-4369.09;5092780;28;20549;-60
2022/11/29 03:02:03;;;;;;;3.17;3.07;;;;;;;5.93;100.00;-4685.78;5092406;28;20219;-60
2022/11/29 03:04:38;;;;;;;3.50;3.30;;;;;;;5.94;100.00;-4685.81;5092689;28;20184;-59
2022/11/29 03:07:13;;;;;;;3.47;3.27;;;;;;;5.89;100.00;-3735.56;5092654;28;20215;-60
2022/11/29 03:09:44;;;;;;;3.10;3.00;;;;;;;5.83;100.00;-2785.19;5092228;28;20243;-59
2022/11/29 03:12:24;;;;;;;3.27;3.17;;;;;;;5.97;100.00;-3102.00;5092656;28;20692;-61
2022/11/29 03:15:02;;;;;;;3.23;3.07;;;;;;;5.93;100.00;-2468.25;5092470;28;20554;-59
2022/11/29 03:17:40;;;;;;;3.67;3.47;;;;;;;5.97;100.00;-2151.28;5090983;28;20184;-60
2022/11/29 03:20:25;;;;;;;3.00;2.90;;;;;;;6.03;100.00;-1200.13;5092051;28;20196;-59
2022/11/29 03:23:09;;;;;;;2.80;2.70;;;;;;;6.06;100.00;-565.78;5091871;28;20180;-59
2022/11/29 03:25:40;;;;;;;3.60;3.50;;;;;;;6.04;100.00;-248.75;5092090;28;20215;-62
2022/11/29 03:28:14;;;;;;;3.60;3.40;;;;;;;5.98;100.00;-566.09;5092069;28;20243;-60
2022/11/29 03:30:49;;;;;;;3.53;3.33;;;;;;;5.98;100.00;-1200.28;5091938;28;20192;-60
2022/11/29 03:33:23;;;;;;;4.00;3.80;;;;;;;5.99;100.00;-1834.28;5092367;28;20187;-60
2022/11/29 03:35:59;;;;;;;4.03;3.83;;;;;;;5.92;100.00;-2785.16;5092270;28;20692;-60
2022/11/29 03:38:32;;;;;;;4.77;4.57;;;;;;;5.93;100.00;-3735.59;5091875;28;20180;-60
2022/11/29 03:41:10;;;;;;;4.33;4.13;;;;;;;5.92;100.00;-4369.09;5091785;28;20233;-60
2022/11/29 03:43:44;;;;;;;4.70;4.50;;;;;;;6.04;100.00;-3735.72;5091864;28;20188;-60
2022/11/29 03:46:17;;;;;;;4.00;3.70;;;;;;;6.08;100.00;-3418.91;5091700;28;20266;-59
2022/11/29 03:48:48;;;;;;;4.50;4.30;;;;;;;6.09;100.00;-2785.06;5091555;28;20274;-60
2022/11/29 03:51:21;;;;;;;4.53;4.33;;;;;;;6.05;100.00;-2468.16;5092003;28;20188;-60
2022/11/29 03:53:54;;;;;;;4.50;4.30;;;;;;;6.10;100.00;-3102.00;5091672;28;20271;-60
2022/11/29 03:56:28;;;;;;;5.27;4.87;;;;;;;6.24;100.00;-3735.94;5092041;28;20211;-60
2022/11/29 03:59:04;;;;;;;4.47;4.27;;;;;;;6.22;100.00;-2785.00;5092096;28;20211;-61
2022/11/29 04:02:16;;;;;;;4.80;4.60;;;;;;;6.17;100.00;-3418.94;5091665;28;20194;-60
2022/11/29 04:05:11;;;;;;;5.30;5.00;;;;;;;6.14;100.00;-3102.00;5091960;28;20576;-60
2022/11/29 04:08:00;;;;;;;4.73;4.53;;;;;;;6.01;100.00;-5002.69;5091603;28;20616;-60
2022/11/29 04:10:49;;;;;;;4.80;4.50;;;;;;;6.06;100.00;-4686.13;5091782;28;20223;-60
2022/11/29 04:13:47;;;;;;;4.23;4.03;;;;;;;5.86;100.00;-4368.94;5091633;28;20238;-60
2022/11/29 04:16:56;;;;;;;4.97;4.57;;;;;;;5.91;100.00;-5319.03;5091676;28;20277;-60
2022/11/29 04:19:48;;;;;;;5.03;4.83;;;;;;;5.97;100.00;-6269.06;5084892;28;20246;-60
2022/11/29 04:22:43;;;;;;;5.03;4.83;;;;;;;6.10;100.00;-6586.28;5091521;28;20215;-60
2022/11/29 04:25:45;;;;;;;5.07;4.87;;;;;;;5.95;100.00;-5319.19;5091346;28;20192;-60
2022/11/29 04:28:32;;;;;;;5.70;5.37;;;;;;;6.04;100.00;-5002.78;5073692;28;20223;-60
2022/11/29 04:31:12;;;;;;;5.20;4.90;;;;;;;5.98;100.00;-4052.44;5091311;28;20220;-61
2022/11/29 04:34:07;;;;;;;5.67;5.37;;;;;;;5.95;100.00;-5319.19;5091229;28;20274;-59
2022/11/29 04:37:04;;;;;;;5.80;5.50;;;;;;;5.94;100.00;-5635.75;5077645;28;20226;-60
2022/11/29 04:39:49;;;;;;;5.80;5.50;;;;;;;5.93;100.00;-5952.28;5095303;28;20227;-61
2022/11/29 04:42:42;;;;;;;6.27;5.77;;;;;;;5.91;100.00;-5952.19;5095099;28;20219;-59
2022/11/29 04:45:56;;;;;;;5.97;5.67;;;;;;;5.94;100.00;-6585.41;5095358;28;20224;-60
2022/11/29 04:48:58;;;;;;;6.13;5.80;;;;;;;5.95;100.00;-6585.47;5042468;28;20317;-59
2022/11/29 04:51:41;;;;;;;5.87;5.50;;;;;;;5.93;100.00;-6268.84;5075772;28;20238;-60
2022/11/29 04:54:16;;;;;;;5.90;5.50;;;;;;;5.88;100.00;-5952.06;5094666;28;20246;-59
2022/11/29 04:56:47;;;;;;;6.20;5.90;;;;;;;5.96;100.00;-6585.53;5095085;28;20642;-61
2022/11/29 04:59:22;;;;;;;6.00;5.70;;;;;;;5.94;100.00;-6268.88;5095154;28;20269;-59
2022/11/29 05:02:01;;;;;;;6.20;5.90;;;;;;;5.98;100.00;-6269.06;5095004;28;20638;-60
2022/11/29 05:04:36;;;;;;;6.57;6.07;;;;;;;6.00;100.00;-5952.56;5094626;28;20223;-60
2022/11/29 05:07:10;;;;;;;5.97;5.67;;;;;;;5.96;100.00;-5319.22;5094636;28;20199;-61
2022/11/29 05:09:50;;;;;;;6.07;5.77;;;;;;;6.03;100.00;-5636.09;5094469;28;20204;-61
2022/11/29 05:12:23;;;;;;;6.47;5.73;;;;;;;5.97;100.00;-5952.47;5094892;28;20618;-59
2022/11/29 05:15:10;;;;;;;7.17;6.77;;;;;;;5.91;100.00;-6585.22;5094693;28;20279;-60
2022/11/29 05:17:49;;;;;;;6.57;5.90;;;;;;;5.96;100.00;-6902.00;5094328;28;20227;-61
2022/11/29 05:20:34;;;;;;;5.93;5.63;;;;;;;5.91;100.00;-6901.69;5094729;28;20208;-61
2022/11/29 05:23:24;;;;;;;6.67;6.27;;;;;;;6.05;100.00;-7219.03;5094284;28;20253;-60
2022/11/29 05:26:00;;;;;;;6.30;5.87;;;;;;;6.03;100.00;-5952.72;5094294;28;20184;-60
2022/11/29 05:28:38;;;;;;;6.10;5.80;;;;;;;6.12;100.00;-5953.13;5094489;28;20239;-60
2022/11/29 05:31:37;;;;;;;6.10;5.80;;;;;;;6.17;100.00;-5319.94;5094398;28;20226;-61
2022/11/29 05:34:44;;;;;;;7.33;6.93;;;;;;;6.24;100.00;-5636.97;5089861;28;20195;-60
2022/11/29 05:37:24;;;;;;;6.80;5.80;;;;;;;6.33;100.00;-5954.13;5093974;28;20245;-60
2022/11/29 05:40:06;;;;;;;7.00;6.40;;;;;;;6.30;100.00;-6270.72;5094275;28;20674;-60
2022/11/29 05:42:56;;;;;;;7.17;6.63;;;;;;;6.34;100.00;-5954.19;5094276;28;20704;-60
2022/11/29 05:45:27;;;;;;;7.10;6.57;;;;;;;6.36;100.00;-5954.28;5093568;28;20227;-60
2022/11/29 05:48:00;;;;;;;6.67;6.33;;;;;;;6.26;100.00;-5953.81;5093522;28;20187;-59
2022/11/29 05:50:33;;;;;;;6.27;5.97;;;;;;;6.31;100.00;-5320.47;5093581;28;20235;-60
2022/11/29 05:53:12;;;;;;;5.87;5.57;;;;;;;6.30;100.00;-5637.22;5093797;28;20246;-60
2022/11/29 05:55:50;;;;;;;5.80;5.50;;;;;;;6.36;100.00;-5320.66;5094186;28;20670;-60
2022/11/29 05:58:26;;;;;;;5.57;5.27;;;;;;;6.43;100.00;-5954.59;5093642;28;20245;-60
2022/11/29 06:00:59;;;;;;;6.07;5.77;;;;;;;6.37;100.00;-5637.50;5093631;28;20245;-61
2022/11/29 06:03:35;;;;;;;6.30;5.93;;;;;;;6.35;100.00;-5954.22;5093561;28;20184;-59
2022/11/29 06:06:07;;;;;;;5.67;5.37;;;;;;;6.33;100.00;-6904.28;5093821;28;20194;-59
2022/11/29 06:08:44;;;;;;;5.80;5.50;;;;;;;6.41;100.00;-6904.78;5093394;28;20243;-60
2022/11/29 06:11:15;;;;;;;5.30;5.03;;;;;;;6.21;100.00;-6586.94;5093723;28;20686;-60
2022/11/29 06:13:55;;;;;;;5.60;5.30;;;;;;;6.39;100.00;-8171.25;5093316;28;20279;-60
2022/11/29 06:16:57;;;;;;;5.83;5.53;;;;;;;6.45;100.00;-8171.72;5093205;28;20205;-60
2022/11/29 06:19:59;;;;;;;5.57;5.37;;;;;;;6.45;100.00;-7855.06;5091991;28;20196;-60
2022/11/29 06:22:45;;;;;;;5.20;5.00;;;;;;;6.48;100.00;-6905.22;5093162;28;20219;-59
2022/11/29 06:25:26;;;;;;;5.47;5.17;;;;;;;6.47;100.00;-6588.41;5093061;28;20198;-59
2022/11/29 06:28:08;;;;;;;5.90;5.60;;;;;;;6.45;100.00;-6588.28;5092922;28;20219;-60
2022/11/29 06:30:55;;;;;;;5.03;4.83;;;;;;;6.34;100.00;-6904.38;5092910;28;20295;-60
2022/11/29 06:33:26;;;;;;;4.93;4.73;;;;;;;6.48;100.00;-6588.44;5093156;28;20180;-59
2022/11/29 06:36:12;;;;;;;5.47;5.17;;;;;;;6.47;100.00;-6588.38;5093067;28;20560;-60
2022/11/29 06:38:40;;;;;;;5.80;5.40;;;;;;;6.44;100.00;-6904.97;5092894;28;20623;-60
2022/11/29 06:41:15;;;;;;;5.03;4.83;;;;;;;6.48;100.00;-7221.94;5092562;28;20184;-60
2022/11/29 06:43:43;;;;;;;5.80;5.50;;;;;;;6.38;100.00;-7537.94;5092560;28;20226;-60
2022/11/29 06:46:16;;;;;;;5.13;4.93;;;;;;;6.34;100.00;-7221.00;5092928;28;20607;-60
2022/11/29 06:48:49;;;;;;;5.57;5.23;;;;;;;6.33;100.00;-8170.75;5092338;28;20267;-61
2022/11/29 06:51:25;;;;;;;5.40;5.10;;;;;;;6.48;100.00;-9121.72;5092487;28;20281;-60
2022/11/29 06:54:04;;;;;;;5.13;4.90;;;;;;;6.60;100.00;-9755.97;5092524;28;20188;-60
2022/11/29 06:56:40;;;;;;;5.70;5.40;;;;;;;6.60;100.00;-9122.88;5092809;28;20215;-60
2022/11/29 06:59:14;;;;;;;5.37;5.00;;;;;;;6.54;100.00;-7539.09;5091619;28;20187;-59
2022/11/29 07:01:47;;;;;;;5.50;5.17;;;;;;;6.47;100.00;-7855.25;5092645;28;20630;-61
2022/11/29 07:04:45;;;;;;;5.40;5.10;;;;;;;6.46;100.00;-9121.50;5092358;28;20180;-60
2022/11/29 07:07:15;;;;;;;4.60;4.40;;;;;;;6.43;100.00;-8488.13;5092296;28;20280;-60
2022/11/29 07:09:43;;;;;;;5.27;5.07;;;;;;;6.50;100.00;-7855.44;5092207;28;20215;-60
2022/11/29 07:12:13;;;;;;;4.80;4.60;;;;;;;6.39;100.00;-8171.22;5092335;28;20184;-60
2022/11/29 07:14:40;;;;;;;4.70;4.50;;;;;;;6.61;100.00;-8173.00;5092146;28;20282;-60
2022/11/29 07:17:16;;;;;;;5.43;4.73;;;;;;;6.57;100.00;-7856.00;5091943;28;20222;-62
2022/11/29 07:19:55;;;;;;;4.23;4.03;;;;;;;6.59;100.00;-7222.66;5092303;28;20655;-61
2022/11/29 07:22:39;;;;;;;4.20;4.00;;;;;;;6.58;100.00;-6905.81;5090701;28;20302;-60
2022/11/29 07:25:21;;;;;;;4.47;4.20;;;;;;;6.71;100.00;-6906.63;5091825;28;20230;-60
2022/11/29 07:28:00;;;;;;;3.50;3.30;;;;;;;6.61;100.00;-7222.78;5091945;28;20274;-60
2022/11/29 07:30:36;;;;;;;4.03;3.83;;;;;;;6.73;100.00;-6589.84;5091775;28;20299;-60
2022/11/29 07:33:13;;;;;;;4.40;4.20;;;;;;;6.85;100.00;-6590.53;5091821;28;20226;-60
2022/11/29 07:35:47;;;;;;;4.23;4.03;;;;;;;6.95;100.00;-7225.09;5091657;28;20183;-61
2022/11/29 07:38:21;;;;;;;4.60;4.40;;;;;;;6.95;100.00;-6274.03;5091912;28;20628;-60
2022/11/29 07:40:55;;;;;;;5.47;5.20;;;;;;;7.06;100.00;-7542.78;5091533;28;20226;-59
2022/11/29 07:43:40;;;;;;;4.80;4.53;;;;;;;7.15;100.00;-8177.44;5090553;28;20223;-59
2022/11/29 07:46:06;;;;;;;4.80;4.60;;;;;;;7.09;100.00;-7226.00;5092014;28;20615;-61
2022/11/29 07:48:33;;;;;;;4.90;4.50;;;;;;;7.09;100.00;-6908.97;5091769;28;20687;-60
2022/11/29 07:51:01;;;;;;;4.13;3.93;;;;;;;6.98;100.00;-7225.28;5091788;28;20212;-60
2022/11/29 07:53:29;;;;;;;4.40;4.20;;;;;;;6.84;100.00;-7541.22;5091688;28;20194;-61
2022/11/29 07:55:57;;;;;;;4.17;3.97;;;;;;;6.84;100.00;-8491.72;5091777;28;20227;-59
2022/11/29 07:58:25;;;;;;;4.87;4.67;;;;;;;7.03;100.00;-9443.81;5092370;28;20702;-61
2022/11/29 08:00:52;;;;;;;5.00;4.80;;;;;;;7.13;100.00;-8811.13;5091693;28;20225;-61
2022/11/29 08:03:19;;;;;;;5.03;4.73;;;;;;;7.03;100.00;-7542.59;5091450;28;20188;-61
2022/11/29 08:05:47;;;;;;;4.50;4.30;;;;;;;6.99;100.00;-7225.31;5091490;28;20184;-61
2022/11/29 08:08:14;;;;;;;4.50;4.30;;;;;;;7.08;100.00;-7225.94;5091508;28;20714;-60
2022/11/29 08:10:41;;;;;;;4.80;4.53;;;;;;;7.04;100.00;-7542.66;5095034;28;20645;-60
2022/11/29 08:13:08;;;;;;;4.43;4.23;;;;;;;7.17;100.00;-7543.59;5095847;28;20600;-60
2022/11/29 08:15:36;;;;;;;4.83;4.63;;;;;;;7.19;100.00;-6909.56;5094514;28;20216;-60
2022/11/29 08:18:04;;;;;;;4.53;4.33;;;;;;;7.23;100.00;-7226.97;5096043;28;20645;-59
2022/11/29 08:20:31;;;;;;;4.60;4.40;;;;;;;7.31;100.00;-7227.47;5095238;28;20184;-60
2022/11/29 08:22:59;;;;;;;4.70;4.50;;;;;;;7.29;100.00;-6910.22;5095238;28;20230;-59
2022/11/29 08:25:28;;;;;;;4.90;4.60;;;;;;;7.33;100.00;-6276.00;5095478;28;20227;-61
2022/11/29 08:27:55;;;;;;;4.97;4.77;;;;;;;7.26;100.00;-5958.44;5095510;28;20600;-61
2022/11/29 08:30:24;;;;;;;4.70;4.50;;;;;;;7.19;100.00;-5640.88;5095358;28;20674;-60
2022/11/29 08:32:52;;;;;;;4.47;4.27;;;;;;;7.24;100.00;-6592.72;5095471;28;20275;-60
2022/11/29 08:35:21;;;;;;;4.53;4.33;;;;;;;7.38;100.00;-7227.94;5095236;28;20227;-59
2022/11/29 08:37:48;;;;;;;3.97;3.77;;;;;;;7.39;100.00;-7862.28;5092426;28;20184;-60
2022/11/29 08:40:16;;;;;;;4.67;4.47;;;;;;;7.41;100.00;-7545.28;5094772;28;20207;-59
2022/11/29 08:42:43;;;;;;;4.63;4.43;;;;;;;7.48;100.00;-6594.06;5094316;28;20238;-58
2022/11/29 08:45:11;;;;;;;3.97;3.77;;;;;;;7.33;100.00;-5006.78;5091338;28;20222;-59
2022/11/29 08:47:40;;;;;;;4.10;3.90;;;;;;;7.37;100.00;-5006.88;5094738;28;20189;-59
2022/11/29 08:50:13;;;;;;;4.23;4.03;;;;;;;7.35;100.00;-5958.88;5091207;28;20232;-58
2022/11/29 08:55:28;;;;;;;4.37;4.07;;;;;;;7.29;100.00;-5958.56;5095021;28;20317;-59
2022/11/29 08:58:01;;;;;;;4.00;3.80;;;;;;;7.40;100.00;-6593.63;5095067;28;20621;-60
2022/11/29 09:00:28;;;;;;;4.17;3.97;;;;;;;7.42;100.00;-6911.00;5095421;28;20261;-59
2022/11/29 09:03:58;;;;;;;4.07;3.87;;;;;;;7.43;100.00;-6276.53;5095066;28;20203;-62
2022/11/29 09:05:44;;;;;;;4.30;4.10;;;;;;;7.53;100.00;-5959.66;5094567;28;20279;-60
2022/11/29 09:08:11;;;;;;;4.47;4.27;;;;;;;7.51;100.00;-5959.56;5094363;28;20201;-60
2022/11/29 09:10:39;;;;;;;4.03;3.83;;;;;;;7.53;100.00;-5959.66;5094593;28;20646;-61
2022/11/29 09:13:06;;;;;;;4.30;4.10;;;;;;;7.48;100.00;-5324.69;5095198;28;20188;-60
2022/11/29 09:15:33;;;;;;;3.73;3.63;;;;;;;7.49;100.00;-6276.84;5094443;28;20188;-61
2022/11/29 09:18:00;;;;;;;5.47;5.27;;;;;;;7.56;100.00;-6911.88;5094409;28;20188;-60
2022/11/29 09:20:27;;;;;;;5.00;4.70;;;;;;;7.58;100.00;-6277.31;5093891;28;20212;-60
2022/11/29 09:22:55;;;;;;;3.80;3.70;;;;;;;7.67;100.00;-6277.75;5094360;28;20189;-60
2022/11/29 09:25:22;;;;;;;4.10;3.90;;;;;;;7.64;100.00;-6277.59;5094311;28;20313;-60
2022/11/29 09:27:49;;;;;;;3.47;3.37;;;;;;;7.72;100.00;-6278.03;5094405;28;20231;-60
2022/11/29 09:30:17;;;;;;;3.20;3.10;;;;;;;7.78;100.00;-6278.34;5092903;28;20287;-59
2022/11/29 09:32:45;;;;;;;3.37;3.27;;;;;;;7.61;100.00;-5325.16;5094247;28;20188;-60
2022/11/29 09:35:14;;;;;;;3.80;3.60;;;;;;;7.60;100.00;-6912.13;5094440;28;20695;-63
2022/11/29 09:37:44;;;;;;;3.47;3.37;;;;;;;7.70;100.00;-8182.00;5094903;28;20589;-62
2022/11/29 09:40:20;;;;;;;3.10;3.00;;;;;;;7.79;100.00;-8499.97;5094252;28;20223;-61
2022/11/29 09:42:56;;;;;;;3.03;2.93;;;;;;;7.92;100.00;-8183.72;5094082;28;20238;-62
2022/11/29 09:45:30;;;;;;;3.07;2.97;;;;;;;7.90;100.00;-7231.38;5094269;28;20188;-62
2022/11/29 09:48:40;;;;;;;2.57;2.47;;;;;;;7.72;100.00;-6912.81;5093983;28;20201;-61
2022/11/29 09:51:19;;;;;;;2.30;2.20;;;;;;;7.86;100.00;-8183.22;5052037;28;20241;-60
2022/11/29 09:54:00;;;;;;;2.30;2.20;;;;;;;7.92;100.00;-8818.38;5091979;28;20278;-60
2022/11/29 09:56:35;;;;;;;2.67;2.57;;;;;;;7.95;100.00;-8818.66;5095269;28;20238;-61
2022/11/29 09:59:04;;;;;;;1.97;1.87;;;;;;;7.88;100.00;-9135.31;5094275;28;20187;-61
2022/11/29 10:01:37;;;;;;;2.20;2.10;;;;;;;7.90;100.00;-10087.09;5094985;28;20196;-62
2022/11/29 10:04:11;;;;;;;2.07;1.97;;;;;;;7.81;100.00;-9769.00;5095519;28;20216;-60
2022/11/29 10:06:42;;;;;;;2.10;2.00;;;;;;;7.74;100.00;-10085.34;5095097;28;20184;-62
2022/11/29 10:09:18;;;;;;;2.90;2.77;;;;;;;7.78;100.00;-9768.72;5095528;28;20264;-63
2022/11/29 10:12:01;;;;;;;1.93;1.90;;;;;;;7.88;100.00;-9452.50;5095038;28;20558;-62
2022/11/29 10:14:33;;;;;;;2.30;2.20;;;;;;;7.90;100.00;-9769.91;5096095;28;20245;-62
2022/11/29 10:17:05;;;;;;;2.03;1.93;;;;;;;7.90;100.00;-10087.09;5095586;28;20694;-61
2022/11/29 10:19:38;;;;;;;3.57;3.37;;;;;;;7.90;100.00;-10404.25;5094743;28;20276;-60
2022/11/29 10:22:14;;;;;;;2.00;1.90;;;;;;;8.16;100.00;-10090.06;5094072;28;20184;-60
2022/11/29 10:24:44;;;;;;;1.70;1.60;;;;;;;7.77;100.00;-9451.41;5094224;28;20673;-61
2022/11/29 10:27:17;;;;;;;1.83;1.73;;;;;;;8.20;100.00;-9455.81;5093772;28;20227;-60
2022/11/29 10:29:47;;;;;;;1.97;1.87;;;;;;;8.18;100.00;-9138.22;5093748;28;20689;-61
2022/11/29 10:32:18;;;;;;;4.00;3.70;;;;;;;8.09;100.00;-10089.31;5093661;28;20184;-61
2022/11/29 10:34:45;;;;;;;2.07;1.97;;;;;;;8.02;100.00;-10722.84;5093441;28;20246;-62
2022/11/29 10:37:16;;;;;;;2.73;2.63;;;;;;;8.20;100.00;-11042.31;5093308;28;20188;-61
2022/11/29 10:39:47;;;;;;;2.03;1.90;;;;;;;8.20;100.00;-10725.16;5092878;28;20265;-60
2022/11/29 10:45:03;;;;;;;2.00;1.90;;;;;;;8.30;100.00;-10408.94;5091480;28;20547;-61
2022/11/29 10:47:30;;;;;;;1.90;1.80;;;;;;;8.19;100.00;-11042.19;5093124;28;20249;-60
2022/11/29 10:49:58;;;;;;;2.17;2.00;;;;;;;8.22;100.00;-11359.87;5093085;28;20626;-60
2022/11/29 10:52:26;;;;;;;2.00;1.90;;;;;;;8.24;100.00;-11042.91;5093412;28;20220;-62
2022/11/29 10:54:56;;;;;;;2.27;2.17;;;;;;;8.40;100.00;-11362.22;5093438;28;20562;-61
2022/11/29 10:57:25;;;;;;;2.03;1.93;;;;;;;8.27;100.00;-11043.28;5092783;28;20253;-61
2022/11/29 11:00:11;;;;;;;2.20;2.10;;;;;;;8.36;100.00;-11361.69;5092985;28;20184;-61
2022/11/29 11:02:38;;;;;;;2.37;2.23;;;;;;;8.39;100.00;-11362.09;5092997;28;20188;-60
2022/11/29 11:05:17;;;;;;;2.27;2.10;;;;;;;8.31;100.00;-11361.03;5093134;28;20278;-60
2022/11/29 11:07:46;;;;;;;2.33;2.23;;;;;;;8.42;100.00;-12948.66;5093693;28;20589;-61
2022/11/29 11:10:25;;;;;;;2.30;2.20;;;;;;;8.40;100.00;-13265.47;5093241;28;20257;-60
2022/11/29 11:13:04;;;;;;;2.40;2.30;;;;;;;8.54;100.00;-13267.78;5092423;28;20180;-61
2022/11/29 11:15:32;;;;;;;2.60;2.50;;;;;;;8.62;100.00;-12317.19;5092346;28;20187;-61
2022/11/29 11:18:00;;;;;;;2.27;2.17;;;;;;;8.62;100.00;-11682.56;5092463;28;20283;-61
2022/11/29 11:20:30;;;;;;;2.60;2.50;;;;;;;8.43;100.00;-12631.63;5093032;28;20180;-61
2022/11/29 11:23:02;;;;;;;2.70;2.50;;;;;;;8.59;100.00;-12951.38;5092446;28;20188;-61
2022/11/29 11:25:33;;;;;;;2.77;2.67;;;;;;;8.65;100.00;-12952.34;5092444;28;20188;-62
2022/11/29 11:28:16;;;;;;;2.63;2.43;;;;;;;8.71;100.00;-13270.50;5092132;28;20184;-61
2022/11/29 11:30:51;;;;;;;2.33;2.23;;;;;;;8.73;100.00;-12636.13;5091976;28;20222;-61
2022/11/29 11:33:21;;;;;;;2.20;2.10;;;;;;;8.61;100.00;-12951.63;5090916;28;20211;-61
2022/11/29 11:36:08;;;;;;;2.50;2.40;;;;;;;8.74;100.00;-13905.41;5092003;28;20273;-60
2022/11/29 11:38:36;;;;;;;2.30;2.20;;;;;;;8.89;100.00;-14225.34;5091796;28;20184;-60
2022/11/29 11:41:07;;;;;;;2.80;2.50;;;;;;;8.99;100.00;-13275.03;5091986;28;20219;-62
2022/11/29 11:43:35;;;;;;;2.60;2.50;;;;;;;8.85;100.00;-11685.69;5091812;28;20231;-61
2022/11/29 11:46:02;;;;;;;3.10;2.90;;;;;;;8.93;100.00;-12639.22;5092130;28;20208;-60
2022/11/29 11:48:29;;;;;;;4.90;3.10;;;;;;;8.92;100.00;-12956.47;5092132;28;20219;-60
2022/11/29 11:51:00;;;;;;;4.47;2.97;;;;;;;8.95;100.00;-12004.56;5092207;28;20236;-60
2022/11/29 11:53:32;;;;;;;2.90;2.80;;;;;;;9.03;100.00;-12640.75;5092010;28;20206;-60
2022/11/29 11:56:01;;;;;;;3.53;3.00;;;;;;;8.93;100.00;-12004.34;5092180;28;20253;-60
2022/11/29 11:58:31;;;;;;;2.77;2.67;;;;;;;8.86;100.00;-12003.31;5092134;28;20611;-61
2022/11/29 12:01:13;;;;;;;73.43;50.37;;;;;;;8.92;100.00;-14225.88;5092122;28;20180;-59
2022/11/29 12:03:48;;;;;;;3.10;3.00;;;;;;;8.88;100.00;-14542.41;5092214;28;20211;-60
2022/11/29 12:06:38;;;;;;;3.30;3.07;;;;;;;8.75;100.00;-14540.06;5092146;28;20175;-59
2022/11/29 12:09:17;;;;;;;3.00;2.90;;;;;;;8.95;100.00;-15495.38;5083833;28;20282;-60
2022/11/29 12:11:55;;;;;;;7.23;3.10;;;;;;;9.06;100.00;-15814.78;5091821;28;20238;-60
2022/11/29 12:14:36;;;;;;;3.63;3.37;;;;;;;8.96;100.00;-15812.84;5090833;28;20531;-60